Time;durP1;ratioP1;P1;durP2;ratioP2;P2;SDS_P1;SDS_P2;PMS_P1;PMS_P2;Temp;Humidity;BMP_temperature;BMP_pressure;BME280_temperature;BME280_humidity;BME280_pressure;Samples;Min_cycle;Max_cycle;Signal;HPM_P1;HPM_P2
2022/04/20 00:01:42;;;;;;;8.43;3.63;;;;;;;;;;5095022;28;20503;-46
2022/04/20 00:04:11;;;;;;;6.97;4.00;;;6.00;99.90;;;;;;5094640;28;20044;-43
2022/04/20 00:06:37;;;;;;;7.75;3.70;;;;;;;;;;5094353;28;20143;-43
2022/04/20 00:09:03;;;;;;;7.38;3.80;;;;;;;;;;5095653;28;20460;-43
2022/04/20 00:11:29;;;;;;;7.93;3.70;;;;;;;;;;5096985;28;20039;-46
2022/04/20 00:13:55;;;;;;;7.00;3.70;;;;;;;;;;5095364;28;20036;-45
2022/04/20 00:16:21;;;;;;;8.32;3.67;;;;;;;;;;5095591;28;20152;-44
2022/04/20 00:18:50;;;;;;;7.60;3.58;;;6.20;99.90;;;;;;5095977;28;20165;-41
2022/04/20 00:21:16;;;;;;;6.63;3.75;;;;;;;;;;5096830;28;20052;-42
2022/04/20 00:23:42;;;;;;;7.15;3.50;;;;;;;;;;5094423;28;20044;-43
2022/04/20 00:26:08;;;;;;;6.82;2.83;;;;;;;;;;5096284;28;20055;-46
2022/04/20 00:28:36;;;;;;;8.25;3.38;;;6.30;99.90;;;;;;5093833;28;20503;-45
2022/04/20 00:31:02;;;;;;;8.55;3.50;;;;;;;;;;5094482;28;20131;-43
2022/04/20 00:33:29;;;;;;;6.15;3.38;;;6.40;99.90;;;;;;5094084;28;20075;-44
2022/04/20 00:35:55;;;;;;;6.07;2.90;;;;;;;;;;5095459;28;20046;-41
2022/04/20 00:38:21;;;;;;;7.00;3.88;;;;;;;;;;5094932;28;21337;-46
2022/04/20 00:40:51;;;;;;;6.88;3.15;;;6.50;99.90;;;;;;5093660;28;20815;-42
2022/04/20 00:43:17;;;;;;;7.50;3.15;;;6.70;99.90;;;;;;5094936;28;20047;-41
2022/04/20 00:45:44;;;;;;;6.20;3.15;;;6.30;99.90;;;;;;5091348;28;20047;-47
2022/04/20 00:48:11;;;;;;;6.22;3.55;;;8.30;99.90;;;;;;5094557;28;20553;-44
2022/04/20 00:50:47;;;;;;;5.47;3.22;;;6.50;99.90;;;;;;5094450;28;20147;-41
2022/04/20 00:53:16;;;;;;;7.32;3.50;;;6.60;99.90;;;;;;5094639;28;20062;-44
2022/04/20 00:55:42;;;;;;;5.80;3.08;;;;;;;;;;5094971;28;20215;-44
2022/04/20 00:58:08;;;;;;;8.38;3.22;;;;;;;;;;5093448;28;20043;-46
2022/04/20 01:00:35;;;;;;;9.18;3.42;;;6.50;99.90;;;;;;5093960;28;20122;-46
2022/04/20 01:03:02;;;;;;;8.75;3.40;;;;;;;;;;5094646;28;20036;-44
2022/04/20 01:05:28;;;;;;;5.82;2.92;;;;;;;;;;5094669;28;20048;-43
2022/04/20 01:07:55;;;;;;;6.68;3.25;;;6.40;99.90;;;;;;5095706;28;20047;-45
2022/04/20 01:10:21;;;;;;;7.40;3.17;;;6.30;99.90;;;;;;5094704;28;20126;-46
2022/04/20 01:12:47;;;;;;;6.75;3.13;;;;;;;;;;5094248;28;20826;-47
2022/04/20 01:15:14;;;;;;;7.93;3.15;;;;;;;;;;5095819;28;20050;-43
2022/04/20 01:17:42;;;;;;;6.47;3.10;;;;;;;;;;5093662;28;20046;-45
2022/04/20 01:20:17;;;;;;;6.40;3.40;;;6.40;99.90;;;;;;5093529;28;20132;-47
2022/04/20 01:22:43;;;;;;;6.88;3.13;;;;;;;;;;5095140;28;20134;-46
2022/04/20 01:25:10;;;;;;;6.18;2.97;;;6.30;99.90;;;;;;5093190;28;20134;-42
2022/04/20 01:27:39;;;;;;;4.85;3.05;;;6.30;99.90;;;;;;5092828;28;20059;-46
2022/04/20 01:30:06;;;;;;;8.75;3.50;;;;;;;;;;5094435;28;20504;-45
2022/04/20 01:32:33;;;;;;;7.55;3.67;;;6.20;99.90;;;;;;5093645;28;20147;-46
2022/04/20 01:34:59;;;;;;;6.03;3.25;;;;;;;;;;5093496;28;20038;-43
2022/04/20 01:37:26;;;;;;;4.82;3.30;;;;;;;;;;5094228;28;20571;-45
2022/04/20 01:39:52;;;;;;;7.18;3.67;;;;;;;;;;5092905;28;20534;-43
2022/04/20 01:42:18;;;;;;;6.65;3.75;;;;;;;;;;5092358;28;20043;-45
2022/04/20 01:44:44;;;;;;;6.28;3.67;;;;;;;;;;5092895;28;20039;-46
2022/04/20 01:47:10;;;;;;;7.65;4.03;;;;;;;;;;5092864;28;20519;-46
2022/04/20 01:49:36;;;;;;;6.00;3.35;;;;;;;;;;5093889;28;20044;-46
2022/04/20 01:52:02;;;;;;;7.43;3.33;;;;;;;;;;5094196;28;20130;-46
2022/04/20 01:54:30;;;;;;;8.00;3.58;;;5.90;99.90;;;;;;5093233;28;20071;-46
2022/04/20 01:56:56;;;;;;;6.07;3.17;;;;;;;;;;5092920;28;20510;-45
2022/04/20 01:59:22;;;;;;;6.90;3.65;;;;;;;;;;5092928;28;20183;-47
2022/04/20 02:04:34;;;;;;;7.82;3.63;;;5.90;99.90;;;;;;5092968;28;20516;-46
2022/04/20 02:07:00;;;;;;;9.60;4.18;;;;;;;;;;5091678;28;20330;-47
2022/04/20 02:09:26;;;;;;;8.30;3.40;;;;;;;;;;5091856;28;20124;-46
2022/04/20 02:11:53;;;;;;;5.88;3.22;;;;;;;;;;5094052;28;20031;-47
2022/04/20 02:14:19;;;;;;;5.60;3.70;;;;;;;;;;5093431;28;20166;-46
2022/04/20 02:16:45;;;;;;;7.57;3.83;;;;;;;;;;5092094;28;20040;-45
2022/04/20 02:19:12;;;;;;;6.70;3.50;;;6.00;99.90;;;;;;5092805;28;20630;-44
2022/04/20 02:21:38;;;;;;;6.40;3.33;;;;;;;;;;5093551;28;20125;-46
2022/04/20 02:24:04;;;;;;;7.28;3.60;;;;;;;;;;5092439;28;20560;-47
2022/04/20 02:26:31;;;;;;;7.75;4.00;;;;;;;;;;5091807;28;20050;-45
2022/04/20 02:28:57;;;;;;;7.25;3.72;;;;;;;;;;5092610;28;20429;-45
2022/04/20 02:31:23;;;;;;;8.43;3.90;;;;;;;;;;5092809;28;20590;-41
2022/04/20 02:33:52;;;;;;;7.13;3.75;;;5.90;99.90;;;;;;5092278;28;20503;-45
2022/04/20 02:36:19;;;;;;;6.45;3.63;;;5.90;99.90;;;;;;5091586;28;20050;-46
2022/04/20 02:38:46;;;;;;;5.72;3.42;;;;;;;;;;5093540;28;20043;-42
2022/04/20 02:41:11;;;;;;;6.22;3.63;;;6.00;99.90;;;;;;5092148;28;20978;-43
2022/04/20 02:43:37;;;;;;;10.27;3.63;;;;;;;;;;5092785;28;20040;-43
2022/04/20 02:46:04;;;;;;;10.20;3.97;;;;;;;;;;5092785;28;20065;-44
2022/04/20 02:48:30;;;;;;;8.10;3.67;;;;;;;;;;5093140;28;20092;-41
2022/04/20 02:50:57;;;;;;;7.10;3.90;;;5.90;99.90;;;;;;5094165;28;20139;-43
2022/04/20 02:53:23;;;;;;;6.60;3.95;;;;;;;;;;5093617;28;20511;-41
2022/04/20 02:55:49;;;;;;;6.13;4.00;;;;;;;;;;5093153;28;20049;-43
2022/04/20 02:58:17;;;;;;;7.18;4.30;;;5.80;99.90;;;;;;5092923;28;20040;-46
2022/04/20 03:00:43;;;;;;;7.93;3.58;;;;;;;;;;5092031;28;20035;-41
2022/04/20 03:03:09;;;;;;;7.53;4.07;;;;;;;;;;5092483;28;20032;-43
2022/04/20 03:05:35;;;;;;;6.40;3.65;;;;;;;;;;5091853;28;20491;-46
2022/04/20 03:08:01;;;;;;;8.75;4.40;;;;;;;;;;5091281;28;20046;-43
2022/04/20 03:10:27;;;;;;;8.77;4.13;;;;;;;;;;5093003;28;20726;-45
2022/04/20 03:12:53;;;;;;;9.27;4.35;;;;;;;;;;5096781;28;20471;-44
2022/04/20 03:15:19;;;;;;;6.82;4.10;;;;;;;;;;5095401;28;20053;-44
2022/04/20 03:17:45;;;;;;;9.02;4.28;;;;;;;;;;5095132;28;20568;-46
2022/04/20 03:20:14;;;;;;;7.60;4.78;;;5.50;99.90;;;;;;5096459;28;20055;-44
2022/04/20 03:22:40;;;;;;;8.98;4.10;;;;;;;;;;5098097;28;20389;-45
2022/04/20 03:25:06;;;;;;;10.13;4.10;;;;;;;;;;5096748;28;20039;-43
2022/04/20 03:27:32;;;;;;;6.47;4.13;;;;;;;;;;5095481;28;20035;-44
2022/04/20 03:29:58;;;;;;;8.30;4.03;;;;;;;;;;5095559;28;20086;-44
2022/04/20 03:32:24;;;;;;;11.98;4.75;;;5.30;99.90;;;;;;5097610;28;20660;-46
2022/04/20 03:34:50;;;;;;;8.90;4.45;;;;;;;;;;5096398;28;20051;-43
2022/04/20 03:37:16;;;;;;;7.80;4.07;;;5.30;99.90;;;;;;5095082;28;20089;-42
2022/04/20 03:39:43;;;;;;;8.55;4.68;;;5.10;99.90;;;;;;5095492;28;20583;-46
2022/04/20 03:42:10;;;;;;;7.13;4.38;;;;;;;;;;5095516;28;20036;-43
2022/04/20 03:44:36;;;;;;;8.52;4.40;;;;;;;;;;5096637;28;20122;-44
2022/04/20 03:47:03;;;;;;;9.55;4.07;;;;;;;;;;5095575;28;20116;-44
2022/04/20 03:49:29;;;;;;;9.75;4.60;;;5.00;99.90;;;;;;5096626;28;20181;-47
2022/04/20 03:51:55;;;;;;;6.68;4.28;;;;;;;;;;5097542;28;20119;-46
2022/04/20 03:54:24;;;;;;;9.45;4.18;;;6.50;99.90;;;;;;5096613;28;20184;-44
2022/04/20 03:57:03;;;;;;;10.38;4.40;;;5.00;99.90;;;;;;5094849;28;20052;-44
2022/04/20 03:59:30;;;;;;;7.30;4.32;;;;;;;;;;5096226;28;20063;-44
2022/04/20 04:01:59;;;;;;;7.80;4.68;;;5.10;99.90;;;;;;5097299;28;20503;-44
2022/04/20 04:04:26;;;;;;;9.48;4.15;;;;;;;;;;5096784;28;20039;-46
2022/04/20 04:06:52;;;;;;;9.02;4.75;;;;;;;;;;5095053;28;20051;-46
2022/04/20 04:09:20;;;;;;;7.95;4.25;;;4.80;99.90;;;;;;5097185;28;20040;-47
2022/04/20 04:11:46;;;;;;;7.38;4.88;;;;;;;;;;5096489;28;20032;-44
2022/04/20 04:14:12;;;;;;;8.38;4.68;;;;;;;;;;5095794;28;20039;-47
2022/04/20 04:16:39;;;;;;;9.70;4.32;;;;;;;;;;5096557;28;20063;-44
2022/04/20 04:19:06;;;;;;;8.25;4.90;;;4.50;99.90;;;;;;5094763;28;20047;-47
2022/04/20 04:21:35;;;;;;;10.10;5.00;;;;;;;;;;5096238;28;20054;-45
2022/04/20 04:24:01;;;;;;;9.70;4.45;;;;;;;;;;5094406;28;20050;-44
2022/04/20 04:26:28;;;;;;;8.35;4.45;;;;;;;;;;5093922;28;20097;-46
2022/04/20 04:28:55;;;;;;;7.97;5.03;;;4.70;99.90;;;;;;5094359;28;20059;-44
2022/04/20 04:31:21;;;;;;;9.02;4.65;;;;;;;;;;5095834;28;20056;-47
2022/04/20 04:33:47;;;;;;;8.75;4.95;;;;;;;;;;5094804;28;20232;-46
2022/04/20 04:36:15;;;;;;;8.63;4.95;;;4.50;99.90;;;;;;5094157;28;20063;-43
2022/04/20 04:38:41;;;;;;;7.22;4.40;;;;;;;;;;5094950;28;20038;-44
2022/04/20 04:41:07;;;;;;;9.05;5.20;;;;;;;;;;5094373;28;20168;-46
2022/04/20 04:43:33;;;;;;;7.45;4.97;;;;;;;;;;5093926;28;20039;-45
2022/04/20 04:48:48;;;;;;;9.20;4.90;;;;;;;;;;5095217;28;20039;-43
2022/04/20 04:51:16;;;;;;;14.23;4.78;;;4.70;99.90;;;;;;5095436;28;20412;-43
2022/04/20 04:53:43;;;;;;;8.85;4.65;;;;;;;;;;5095240;27;20040;-45
2022/04/20 04:56:09;;;;;;;10.43;5.38;;;;;;;;;;5094257;28;20063;-46
2022/04/20 04:58:38;;;;;;;10.60;4.35;;;4.90;99.90;;;;;;5094781;28;20511;-46
2022/04/20 05:01:04;;;;;;;7.10;3.88;;;;;;;;;;5094408;28;20130;-46
2022/04/20 05:03:30;;;;;;;8.30;4.82;;;;;;;;;;5092447;28;20035;-45
2022/04/20 05:05:57;;;;;;;8.48;4.53;;;;;;;;;;5093942;28;20435;-43
2022/04/20 05:08:23;;;;;;;8.25;4.25;;;;;;;;;;5094822;28;20039;-45
2022/04/20 05:10:49;;;;;;;12.77;4.53;;;;;;;;;;5093973;28;20035;-47
2022/04/20 05:13:16;;;;;;;8.68;4.32;;;;;;;;;;5093897;28;20522;-42
2022/04/20 05:15:43;;;;;;;7.90;4.07;;;5.80;99.90;;;;;;5094779;28;20047;-46
2022/04/20 05:18:09;;;;;;;9.60;4.80;;;;;;;;;;5093796;28;20027;-45
2022/04/20 05:20:36;;;;;;;8.00;4.15;;;;;;;;;;5092615;28;20043;-43
2022/04/20 05:23:01;;;;;;;11.20;4.50;;;6.00;99.90;;;;;;5095276;28;20040;-46
2022/04/20 05:25:27;;;;;;;6.90;4.47;;;;;;;;;;5095280;28;20054;-46
2022/04/20 05:27:53;;;;;;;8.07;4.80;;;;;;;;;;5092949;28;20043;-43
2022/04/20 05:30:19;;;;;;;6.78;4.05;;;;;;;;;;5093642;28;20043;-43
2022/04/20 05:32:45;;;;;;;6.82;4.15;;;6.30;99.90;;;;;;5093722;28;20135;-44
2022/04/20 05:35:11;;;;;;;9.30;4.53;;;6.50;99.90;;;;;;5092758;28;20127;-45
2022/04/20 05:43:07;;;;;;;6.78;4.05;;;7.60;99.90;;;;;;5094012;28;20050;-45
2022/04/20 05:45:33;;;;;;;8.00;3.22;;;8.50;99.90;;;;;;5093751;28;20036;-46
2022/04/20 05:48:01;;;;;;;7.78;3.92;;;8.80;99.90;;;;;;5093002;28;20503;-42
2022/04/20 05:50:27;;;;;;;8.57;3.78;;;9.40;99.90;;;;;;5091972;28;20143;-45
2022/04/20 05:52:52;;;;;;;9.02;3.67;;;10.20;99.90;;;;;;5095420;27;20108;-44
2022/04/20 05:55:18;;;;;;;10.57;4.05;;;13.00;99.90;;;;;;5092853;28;20055;-43
2022/04/20 05:57:47;;;;;;;6.68;3.65;;;11.60;99.90;;;;;;5092982;28;20031;-45
2022/04/20 06:00:13;;;;;;;6.28;3.50;;;12.40;99.90;;;;;;5092943;28;20122;-44
2022/04/20 06:02:39;;;;;;;5.47;3.42;;;12.30;99.90;;;;;;5094202;28;20032;-44
2022/04/20 06:05:05;;;;;;;9.75;3.83;;;13.40;99.90;;;;;;5092406;28;20392;-45
2022/04/20 06:07:31;;;;;;;6.63;3.42;;;13.00;99.90;;;;;;5091647;28;20039;-42
2022/04/20 06:09:56;;;;;;;8.82;5.07;;;14.30;99.90;;;;;;5092736;28;20207;-47
2022/04/20 06:12:24;;;;;;;9.60;3.35;;;15.20;99.90;;;;;;5093989;28;20036;-47
2022/04/20 06:14:50;;;;;;;7.00;3.58;;;13.60;99.90;;;;;;5093562;28;20043;-46
2022/04/20 06:17:16;;;;;;;7.28;3.15;;;15.10;99.90;;;;;;5092939;28;20533;-46
2022/04/20 06:19:41;;;;;;;8.18;3.35;;;15.20;99.90;;;;;;5092042;28;20046;-44
2022/04/20 06:22:07;;;;;;;8.48;3.80;;;16.10;99.90;;;;;;5092749;28;20590;-48
2022/04/20 06:24:33;;;;;;;8.73;3.47;;;16.60;99.90;;;;;;5092685;28;20032;-43
2022/04/20 06:26:58;;;;;;;6.32;3.38;;;16.90;99.90;;;;;;5092602;28;20043;-47
2022/04/20 06:29:24;;;;;;;30.88;13.07;;;19.40;99.90;;;;;;5093495;28;20051;-44
2022/04/20 06:31:51;;;;;;;171.07;105.60;;;18.40;99.90;;;;;;5091795;28;20754;-46
2022/04/20 06:34:19;;;;;;;760.97;682.33;;;18.10;99.90;;;;;;5092453;28;20052;-45
2022/04/20 06:36:46;;;;;;;758.58;681.85;;;18.40;99.90;;;;;;5092615;28;20506;-45
2022/04/20 06:39:12;;;;;;;498.00;459.83;;;19.70;99.90;;;;;;5093070;28;20534;-46
2022/04/20 06:41:38;;;;;;;624.13;574.92;;;19.00;99.90;;;;;;5093158;28;20036;-46
2022/04/20 06:44:06;;;;;;;839.92;755.03;;;17.90;99.90;;;;;;5093222;28;21046;-46
2022/04/20 06:46:33;;;;;;;502.88;428.13;;;18.50;99.90;;;;;;5097682;28;20032;-45
2022/04/20 06:48:59;;;;;;;6.80;5.35;;;18.60;99.90;;;;;;5097133;28;20036;-43
2022/04/20 06:51:25;;;;;;;7.40;3.30;;;18.70;99.90;;;;;;5096617;28;20706;-47
2022/04/20 06:59:20;;;;;;;7.00;3.40;;;19.60;99.30;;;;;;5096536;28;20062;-48
2022/04/20 07:01:48;;;;;;;9.82;3.15;;;20.10;99.40;;;;;;5096403;28;20081;-47
2022/04/20 07:04:13;;;;;;;6.28;3.20;;;20.50;97.20;;;;;;5097385;28;20043;-44
2022/04/20 07:06:39;;;;;;;7.68;3.30;;;20.90;96.70;;;;;;5096619;28;20058;-47
2022/04/20 07:09:05;;;;;;;9.57;2.70;;;18.90;94.70;;;;;;5094977;28;20396;-48
2022/04/20 07:11:30;;;;;;;4.55;2.33;;;21.80;94.30;;;;;;5095165;28;20076;-46
2022/04/20 07:13:56;;;;;;;8.15;3.53;;;22.00;93.90;;;;;;5095626;28;20051;-48
2022/04/20 07:16:22;;;;;;;5.18;3.00;;;22.70;93.50;;;;;;5096750;28;20426;-47
2022/04/20 07:18:47;;;;;;;5.85;2.63;;;21.20;93.60;;;;;;5095565;28;20044;-47
2022/04/20 07:21:13;;;;;;;5.35;3.03;;;21.00;92.90;;;;;;5096843;28;20452;-48
2022/04/20 07:23:39;;;;;;;6.13;2.83;;;21.00;92.90;;;;;;5095798;28;20035;-46
2022/04/20 07:26:05;;;;;;;6.30;2.88;;;20.90;91.40;;;;;;5095403;27;20042;-46
2022/04/20 07:28:31;;;;;;;6.20;2.78;;;20.40;91.10;;;;;;5094719;28;20137;-48
2022/04/20 07:31:01;;;;;;;5.07;2.28;;;20.30;91.60;;;;;;5095991;28;20035;-46
2022/04/20 07:33:26;;;;;;;8.40;2.42;;;20.20;91.60;;;;;;5097489;28;20059;-42
2022/04/20 07:35:52;;;;;;;4.00;2.53;;;20.10;91.30;;;;;;5096344;28;20043;-48
2022/04/20 07:38:18;;;;;;;5.72;2.17;;;19.30;91.90;;;;;;5096791;28;20117;-47
2022/04/20 07:40:43;;;;;;;6.75;2.67;;;18.80;91.40;;;;;;5096164;28;20040;-48
2022/04/20 07:43:09;;;;;;;7.90;2.70;;;20.60;93.40;;;;;;5095729;28;20122;-47
2022/04/20 07:45:35;;;;;;;4.15;1.90;;;19.20;92.80;;;;;;5096730;28;20045;-46
2022/04/20 07:48:00;;;;;;;5.60;2.58;;;18.20;92.20;;;;;;5096318;28;20449;-45
2022/04/20 07:50:26;;;;;;;5.07;2.63;;;18.00;92.90;;;;;;5097826;28;20130;-46
2022/04/20 07:52:57;;;;;;;8.75;2.80;;;17.70;93.90;;;;;;5096633;28;20500;-47
2022/04/20 07:55:28;;;;;;;4.80;2.50;;;18.90;94.30;;;;;;5096546;28;20067;-45
2022/04/20 07:57:58;;;;;;;4.93;2.45;;;16.60;94.20;;;;;;5094169;28;20583;-43
2022/04/20 08:00:26;;;;;;;5.30;2.50;;;16.40;95.40;;;;;;5095659;28;20108;-47
2022/04/20 08:03:11;;;;;;;5.28;2.47;;;17.70;95.60;;;;;;5095688;28;20457;-47
2022/04/20 08:05:38;;;;;;;4.00;1.98;;;16.60;94.20;;;;;;5095847;28;20032;-49
2022/04/20 08:08:06;;;;;;;5.40;2.20;;;18.30;95.00;;;;;;5097016;28;20143;-48
2022/04/20 08:10:32;;;;;;;4.45;2.45;;;16.40;94.10;;;;;;5095489;28;20590;-46
2022/04/20 08:12:58;;;;;;;5.45;2.20;;;15.60;94.30;;;;;;5096507;28;20044;-43
2022/04/20 08:15:24;;;;;;;4.35;2.03;;;15.20;94.20;;;;;;5096154;28;20085;-45
2022/04/20 08:17:49;;;;;;;10.30;2.28;;;17.40;95.20;;;;;;5096531;28;20032;-47
2022/04/20 08:20:15;;;;;;;6.00;1.88;;;15.10;95.00;;;;;;5096195;28;20495;-46
2022/04/20 08:22:42;;;;;;;5.60;2.17;;;14.80;94.60;;;;;;5095248;28;20040;-47
2022/04/20 08:25:10;;;;;;;6.15;1.98;;;15.30;94.70;;;;;;5093376;28;20100;-46
2022/04/20 08:27:36;;;;;;;4.50;1.85;;;15.70;94.10;;;;;;5096161;28;20105;-47
2022/04/20 08:30:03;;;;;;;5.15;2.13;;;16.50;94.10;;;;;;5094642;28;20061;-43
2022/04/20 08:32:30;;;;;;;5.25;2.15;;;15.90;94.20;;;;;;5095151;28;20044;-45
2022/04/20 08:34:56;;;;;;;4.03;2.00;;;15.90;94.20;;;;;;5094404;28;20039;-45
2022/04/20 08:37:22;;;;;;;4.50;1.77;;;17.40;94.20;;;;;;5096161;28;20460;-44
2022/04/20 08:39:48;;;;;;;7.10;1.77;;;17.40;94.60;;;;;;5093907;28;20043;-42
2022/04/20 08:42:19;;;;;;;4.45;1.70;;;15.30;93.80;;;;;;5094970;28;20080;-45
2022/04/20 08:44:49;;;;;;;3.47;1.80;;;15.60;94.50;;;;;;5093822;28;20031;-48
2022/04/20 08:47:21;;;;;;;3.72;1.50;;;15.90;94.40;;;;;;5094983;27;20130;-45
2022/04/20 08:49:51;;;;;;;5.50;1.83;;;16.50;93.00;;;;;;5093781;28;20723;-45
2022/04/20 08:52:38;;;;;;;4.72;2.03;;;16.30;93.10;;;;;;5094659;28;20043;-45
2022/04/20 08:55:06;;;;;;;4.35;1.63;;;16.10;92.90;;;;;;5094376;28;20040;-43
2022/04/20 08:57:36;;;;;;;4.68;1.73;;;16.10;93.90;;;;;;5094408;28;20096;-46
2022/04/20 09:00:05;;;;;;;4.38;2.25;;;18.20;93.40;;;;;;5093656;28;20246;-45
2022/04/20 09:02:31;;;;;;;7.30;1.80;;;15.90;93.20;;;;;;5095667;28;20032;-47
2022/04/20 09:04:58;;;;;;;4.85;1.70;;;15.70;93.70;;;;;;5093508;28;20092;-47
2022/04/20 09:07:27;;;;;;;3.45;1.50;;;16.10;94.30;;;;;;5094470;28;20039;-47
2022/04/20 09:09:53;;;;;;;3.28;1.20;;;16.20;92.30;;;;;;5093170;28;20036;-46
2022/04/20 09:12:22;;;;;;;4.35;1.50;;;16.50;91.60;;;;;;5095033;28;20062;-45
2022/04/20 09:14:50;;;;;;;6.15;1.95;;;16.50;91.70;;;;;;5094632;28;20035;-46
2022/04/20 09:17:20;;;;;;;3.90;1.58;;;16.10;91.10;;;;;;5094806;28;20047;-47
2022/04/20 09:19:48;;;;;;;2.67;1.38;;;16.20;91.40;;;;;;5094581;28;20053;-44
2022/04/20 09:22:32;;;;;;;3.65;1.33;;;16.20;92.00;;;;;;5093737;28;20054;-46
2022/04/20 09:25:06;;;;;;;2.72;1.35;;;16.70;91.00;;;;;;5095790;28;20044;-46
2022/04/20 09:27:34;;;;;;;3.03;1.20;;;17.10;89.90;;;;;;5093168;28;20096;-47
2022/04/20 09:30:01;;;;;;;4.57;1.55;;;17.30;90.40;;;;;;5093816;28;20272;-45
2022/04/20 09:32:38;;;;;;;4.35;1.48;;;17.90;90.70;;;;;;5092860;28;20094;-57
2022/04/20 09:35:14;;;;;;;2.97;1.20;;;17.10;91.70;;;;;;5093495;28;20032;-58
2022/04/20 09:37:41;;;;;;;4.05;1.30;;;16.40;90.80;;;;;;5090843;28;20487;-57
2022/04/20 09:40:12;;;;;;;3.08;1.38;;;16.30;90.80;;;;;;5094154;28;20130;-58
2022/04/20 09:43:04;;;;;;;3.55;1.65;;;15.60;91.60;;;;;;5091855;28;20044;-56
2022/04/20 09:45:30;;;;;;;3.05;1.48;;;17.70;92.20;;;;;;5093931;28;20039;-55
2022/04/20 09:50:43;;;;;;;2.83;1.50;;;15.60;91.70;;;;;;5091849;28;20054;-58
2022/04/20 09:53:12;;;;;;;3.58;1.40;;;15.20;91.80;;;;;;5092814;28;20035;-57
2022/04/20 09:55:39;;;;;;;3.28;1.35;;;15.60;92.10;;;;;;5093164;28;20040;-56
2022/04/20 09:58:09;;;;;;;2.63;1.38;;;15.70;92.10;;;;;;5091734;28;20046;-58
2022/04/20 10:00:42;;;;;;;4.43;1.60;;;15.40;92.70;;;;;;5092088;28;20726;-57
2022/04/20 10:03:08;;;;;;;4.18;1.45;;;15.40;91.90;;;;;;5093188;28;20038;-57
2022/04/20 10:05:37;;;;;;;5.22;1.67;;;15.50;91.40;;;;;;5093623;28;20032;-57
2022/04/20 10:08:04;;;;;;;3.55;1.40;;;16.80;91.90;;;;;;5091992;28;20392;-58
2022/04/20 10:10:30;;;;;;;2.25;1.30;;;15.80;92.00;;;;;;5090927;28;20048;-56
2022/04/20 10:12:57;;;;;;;2.90;1.05;;;16.60;91.60;;;;;;5092849;28;20043;-58
2022/04/20 10:18:19;;;;;;;8.05;1.48;;;15.90;89.30;;;;;;5092312;28;20050;-57
2022/04/20 10:20:50;;;;;;;4.45;1.13;;;18.00;91.00;;;;;;5092822;28;20143;-55
2022/04/20 10:23:19;;;;;;;1.52;0.75;;;15.90;90.30;;;;;;5093305;28;20075;-57
2022/04/20 10:25:51;;;;;;;2.42;1.15;;;15.70;90.00;;;;;;5093534;28;20027;-56
2022/04/20 10:28:36;;;;;;;2.58;1.30;;;15.80;89.60;;;;;;5092722;28;20040;-58
2022/04/20 10:31:18;;;;;;;2.65;1.10;;;15.70;90.80;;;;;;5123848;27;20048;-56
2022/04/20 10:33:45;;;;;;;3.72;1.42;;;16.20;88.20;;;;;;5091446;28;20516;-58
2022/04/20 10:36:14;;;;;;;4.30;1.38;;;18.30;90.90;;;;;;5093067;28;20085;-57
2022/04/20 10:38:42;;;;;;;3.25;1.23;;;17.80;90.10;;;;;;5126081;27;20052;-56
2022/04/20 10:41:09;;;;;;;2.65;1.30;;;16.60;90.40;;;;;;5092310;28;20412;-56
2022/04/20 10:43:41;;;;;;;2.13;0.98;;;16.10;90.40;;;;;;5091987;28;20042;-55
2022/04/20 10:46:20;;;;;;;2.05;1.05;;;16.50;89.60;;;;;;5091918;28;20077;-57
2022/04/20 10:48:55;;;;;;;3.50;1.30;;;16.50;90.50;;;;;;5092735;28;20035;-56
2022/04/20 10:51:30;;;;;;;2.95;1.40;;;16.50;90.40;;;;;;5092684;28;20252;-57
2022/04/20 10:54:24;;;;;;;4.18;1.05;;;17.60;90.20;;;;;;5094062;28;20250;-56
2022/04/20 10:56:59;;;;;;;2.67;1.20;;;16.50;88.20;;;;;;5092801;28;20074;-55
2022/04/20 10:59:25;;;;;;;3.38;1.50;;;16.80;90.10;;;;;;5091974;28;20573;-56
2022/04/20 11:02:02;;;;;;;3.47;1.20;;;16.30;90.90;;;;;;5092718;28;20046;-57
2022/04/20 11:04:42;;;;;;;2.38;1.13;;;16.50;87.70;;;;;;5092071;28;20035;-56
2022/04/20 11:07:07;;;;;;;3.97;1.20;;;16.50;88.90;;;;;;5092374;28;20711;-57
2022/04/20 11:09:57;;;;;;;5.63;1.40;;;16.40;89.90;;;;;;5091032;28;20047;-56
2022/04/20 11:18:39;;;;;;;3.15;0.98;;;16.20;89.80;;;;;;5048757;28;20064;-57
2022/04/20 11:21:07;;;;;;;2.75;0.95;;;16.30;89.10;;;;;;5049520;28;20559;-56
2022/04/20 11:23:49;;;;;;;3.25;1.13;;;16.40;90.30;;;;;;5048577;28;20052;-57
2022/04/20 11:26:21;;;;;;;4.90;1.10;;;17.40;90.30;;;;;;5048696;28;20086;-56
2022/04/20 11:28:50;;;;;;;4.45;1.20;;;18.30;90.80;;;;;;5048079;28;20087;-55
2022/04/20 11:31:16;;;;;;;2.72;1.73;;;17.30;89.40;;;;;;5048192;28;20106;-56
2022/04/20 11:33:44;;;;;;;2.88;1.17;;;16.90;87.10;;;;;;5050602;28;20040;-57
2022/04/20 11:36:12;;;;;;;2.83;1.02;;;17.10;89.70;;;;;;5052864;28;20052;-55
2022/04/20 11:38:43;;;;;;;2.28;0.95;;;19.40;90.00;;;;;;5052998;28;20044;-57
2022/04/20 11:41:10;;;;;;;3.88;1.20;;;17.10;88.80;;;;;;5051783;28;20570;-55
2022/04/20 11:43:37;;;;;;;2.50;0.90;;;16.60;87.50;;;;;;5052950;28;20084;-54
2022/04/20 11:46:04;;;;;;;2.90;1.15;;;16.80;90.40;;;;;;5052562;28;20512;-56
2022/04/20 11:48:30;;;;;;;2.78;1.00;;;16.90;88.00;;;;;;5057003;28;20090;-54
2022/04/20 11:51:00;;;;;;;2.75;1.00;;;18.30;90.20;;;;;;5095942;28;20043;-55
2022/04/20 11:53:38;;;;;;;4.38;1.50;;;16.90;90.50;;;;;;5096156;28;20097;-58
2022/04/20 11:56:12;;;;;;;2.45;1.05;;;16.80;90.00;;;;;;5096055;28;20040;-56
2022/04/20 11:58:38;;;;;;;3.13;1.10;;;19.30;90.40;;;;;;5095854;28;20097;-57
2022/04/20 12:01:08;;;;;;;2.05;0.93;;;18.40;90.80;;;;;;5096076;28;20059;-57
2022/04/20 12:03:41;;;;;;;2.47;0.90;;;17.40;91.40;;;;;;5096030;28;20035;-56
2022/04/20 12:06:09;;;;;;;2.55;0.73;;;17.20;90.10;;;;;;5095443;28;20039;-58
2022/04/20 12:08:38;;;;;;;4.03;1.00;;;18.00;91.10;;;;;;5095716;28;20039;-56
2022/04/20 12:11:11;;;;;;;2.20;1.00;;;18.10;91.20;;;;;;5095099;28;20043;-58
2022/04/20 12:13:42;;;;;;;3.10;0.93;;;19.60;90.70;;;;;;5096503;28;20052;-56
2022/04/20 12:16:10;;;;;;;5.82;0.80;;;18.00;90.40;;;;;;5096263;28;20040;-56
2022/04/20 12:18:40;;;;;;;4.35;0.90;;;17.50;90.80;;;;;;5093257;28;20392;-56
2022/04/20 12:21:26;;;;;;;2.10;0.80;;;17.50;90.90;;;;;;5094198;28;20066;-57
2022/04/20 12:23:52;;;;;;;3.05;1.02;;;17.60;87.30;;;;;;5094349;28;20077;-57
2022/04/20 12:26:28;;;;;;;1.90;0.80;;;17.40;88.90;;;;;;5094467;28;20055;-58
2022/04/20 12:29:06;;;;;;;6.00;0.80;;;17.00;90.80;;;;;;5094106;28;20500;-57
2022/04/20 12:31:33;;;;;;;2.05;0.68;;;17.10;88.90;;;;;;5093827;28;20625;-57
2022/04/20 12:34:04;;;;;;;2.70;1.10;;;18.40;90.00;;;;;;5094142;28;20122;-57
2022/04/20 12:36:33;;;;;;;2.00;0.70;;;17.10;89.20;;;;;;5094324;28;20084;-56
2022/04/20 12:38:59;;;;;;;1.85;0.70;;;16.90;90.30;;;;;;5089277;28;20644;-55
2022/04/20 12:41:43;;;;;;;4.07;1.00;;;17.40;89.50;;;;;;5095705;28;20044;-55
2022/04/20 12:46:59;;;;;;;6.25;0.90;;;16.70;89.50;;;;;;5094177;28;20876;-57
2022/04/20 12:49:25;;;;;;;2.13;0.85;;;16.90;90.10;;;;;;5093004;28;20118;-56
2022/04/20 12:51:51;;;;;;;1.98;0.70;;;17.70;91.50;;;;;;5094861;28;20400;-57
2022/04/20 12:54:24;;;;;;;4.47;0.95;;;18.00;90.50;;;;;;5094177;28;20134;-56
2022/04/20 13:02:19;;;;;;;1.90;0.68;;;16.80;89.30;;;;;;5093395;28;20044;-55
2022/04/20 13:04:52;;;;;;;3.92;0.85;;;16.80;90.90;;;;;;5095291;28;20035;-55
2022/04/20 13:07:17;;;;;;;1.42;0.50;;;17.30;91.30;;;;;;5094415;28;20092;-55
2022/04/20 13:09:43;;;;;;;2.38;1.00;;;18.90;90.40;;;;;;5094461;28;20081;-56
2022/04/20 13:12:12;;;;;;;3.90;0.80;;;16.90;90.60;;;;;;5094339;28;20032;-55
2022/04/20 13:14:38;;;;;;;4.07;1.20;;;17.00;90.70;;;;;;5093673;28;20039;-57
2022/04/20 13:17:09;;;;;;;1.95;0.77;;;16.80;90.80;;;;;;5092719;28;20036;-55
2022/04/20 13:19:36;;;;;;;3.70;1.08;;;18.20;91.60;;;;;;5094346;28;20118;-56
2022/04/20 13:22:03;;;;;;;3.25;1.10;;;17.20;91.60;;;;;;5095354;28;20036;-55
2022/04/20 13:29:59;;;;;;;2.85;1.08;;;17.70;90.30;;;;;;5093164;28;20054;-55
2022/04/20 13:32:25;;;;;;;3.85;1.38;;;16.90;91.00;;;;;;5094193;28;20040;-56
2022/04/20 13:34:51;;;;;;;4.82;2.63;;;17.20;91.50;;;;;;5092912;28;20031;-57
2022/04/20 13:37:18;;;;;;;6.13;3.03;;;16.80;95.20;;;;;;5092543;28;20081;-56
2022/04/20 13:39:44;;;;;;;4.57;2.47;;;19.10;95.60;;;;;;5092652;28;20036;-56
2022/04/20 13:42:10;;;;;;;6.68;2.45;;;16.90;95.60;;;;;;5092460;28;20071;-48
2022/04/20 13:44:35;;;;;;;6.03;2.38;;;17.80;95.90;;;;;;5093610;28;20196;-44
2022/04/20 13:47:01;;;;;;;4.78;2.25;;;16.60;95.80;;;;;;5092152;28;20400;-46
2022/04/20 13:49:27;;;;;;;4.10;2.00;;;16.60;96.30;;;;;;5093482;28;21354;-47
2022/04/20 13:51:53;;;;;;;9.10;2.72;;;16.60;97.20;;;;;;5093266;28;20139;-46
2022/04/20 13:54:21;;;;;;;13.40;3.20;;;17.70;97.20;;;;;;5092256;28;20046;-47
2022/04/20 13:56:50;;;;;;;6.95;2.67;;;17.80;97.30;;;;;;5093100;28;20055;-44
2022/04/20 13:59:16;;;;;;;5.85;3.03;;;18.30;97.70;;;;;;5091863;28;20470;-47
2022/04/20 14:01:43;;;;;;;5.18;2.53;;;17.30;97.30;;;;;;5094044;28;20034;-47
2022/04/20 14:04:09;;;;;;;6.97;2.95;;;17.10;97.00;;;;;;5091870;28;20040;-47